Scottish Viking — IBDZ — position and weather

sailwx.info

Track history (hours):
 
Tides and Currents Weather Stations Pressure Air Temp Water Temp Dewpoint Dewpoint Depression Visibility Wind Speed Wind Dir Waves Ship Positions

Scottish Viking

Last reported at 2014-Aug-10 11:25 UTC. Time now 2014-Sep-01 21:06 UTC.
Position N 58°05' E 019°34'.
Warning: this ship's position is 22 days out of date.

Length 186 m; draft 6.2 m.

Type: Ship. MMSI: 247265800.

Date/timePositionNaut miles runAvg speedWind from/ knotsBaromVisibWave heightAir tempDewpointWater temp
2014-Aug-10 11:25N 58°05' E 019°34'1314.2
2014-Aug-10 10:31N 58°11' E 019°13'15 0.5
2014-Aug-09 01:13N 58°04' E 019°38'1214.4
2014-Aug-09 00:23N 58°10' E 019°18'14 0.5
2014-Aug-07 23:32N 58°02' E 019°39'17 0.3
2014-Aug-05 21:09N 58°12' E 019°12'18 1.1
2014-Aug-05 05:18N 58°25' E 018°48'912.4
2014-Aug-05 04:33N 58°18' E 018°60'1914.6
2014-Aug-05 03:16N 58°07' E 019°28'1214.9
2014-Aug-05 02:29N 58°00' E 019°47'1415.0
2014-Aug-05 01:32N 57°53' E 020°09'14 1.4
2014-Aug-04 15:24N 57°46' E 020°32'1922.9
2014-Aug-04 14:33N 57°56' E 020°02'3517.6
2014-Aug-04 12:33N 58°14' E 019°04'1414.0
2014-Aug-04 11:33N 58°25' E 018°47'1513.8
2014-Aug-04 10:30N 58°35' E 018°28'1314.0
2014-Aug-04 09:33N 58°45' E 018°11'11 3.5
2014-Aug-04 06:25N 58°55' E 018°00'1719.8
2014-Aug-04 05:33N 58°40' E 018°18'1918.8
2014-Aug-04 04:33N 58°27' E 018°43'1212.4
2014-Aug-04 03:34N 58°18' E 018°59'1414.2
2014-Aug-04 02:33N 58°09' E 019°21'1414.4
2014-Aug-04 01:34N 58°02' E 019°44'1414.5
2014-Aug-04 00:34N 57°54' E 020°07'1814.5
2014-Aug-03 23:18N 57°45' E 020°36'1414.3
2014-Aug-03 22:18N 57°38' E 020°60'55 5.1
2014-Aug-03 11:34N 58°06' E 019°32'1212.3
2014-Aug-03 10:33N 58°13' E 019°12'1413.9
2014-Aug-03 09:33N 58°22' E 018°52'1413.7
2014-Aug-03 08:33N 58°32' E 018°34'84 2.9
2014-Aug-02 04:08N 57°43' E 020°43'814.2
2014-Aug-02 03:32N 57°47' E 020°30'1514.2
2014-Aug-02 02:31N 57°55' E 020°07'3214.1
2014-Aug-02 00:13N 58°12' E 019°14'  
Track history (hours):
 
Tides and Currents Weather Stations Pressure Air Temp Water Temp Dewpoint Dewpoint Depression Visibility Wind Speed Wind Dir Waves Ship Positions

Scottish Viking

Last reported at 2014-Aug-10 11:25 UTC. Time now 2014-Sep-01 21:06 UTC.
Position N 58°05' E 019°34'.
Warning: this ship's position is 22 days out of date.

Length 186 m; draft 6.2 m.

Type: Ship. MMSI: 247265800.

Date/timePositionNaut miles runAvg speedWind from/ knotsBaromVisibWave heightAir tempDewpointWater temp
2014-Aug-10 11:25N 58°05' E 019°34'1314.2
2014-Aug-10 10:31N 58°11' E 019°13'15 0.5
2014-Aug-09 01:13N 58°04' E 019°38'1214.4
2014-Aug-09 00:23N 58°10' E 019°18'14 0.5
2014-Aug-07 23:32N 58°02' E 019°39'17 0.3
2014-Aug-05 21:09N 58°12' E 019°12'18 1.1
2014-Aug-05 05:18N 58°25' E 018°48'912.4
2014-Aug-05 04:33N 58°18' E 018°60'1914.6
2014-Aug-05 03:16N 58°07' E 019°28'1214.9
2014-Aug-05 02:29N 58°00' E 019°47'1415.0
2014-Aug-05 01:32N 57°53' E 020°09'14 1.4
2014-Aug-04 15:24N 57°46' E 020°32'1922.9
2014-Aug-04 14:33N 57°56' E 020°02'3517.6
2014-Aug-04 12:33N 58°14' E 019°04'1414.0
2014-Aug-04 11:33N 58°25' E 018°47'1513.8
2014-Aug-04 10:30N 58°35' E 018°28'1314.0
2014-Aug-04 09:33N 58°45' E 018°11'11 3.5
2014-Aug-04 06:25N 58°55' E 018°00'1719.8
2014-Aug-04 05:33N 58°40' E 018°18'1918.8
2014-Aug-04 04:33N 58°27' E 018°43'1212.4
2014-Aug-04 03:34N 58°18' E 018°59'1414.2
2014-Aug-04 02:33N 58°09' E 019°21'1414.4
2014-Aug-04 01:34N 58°02' E 019°44'1414.5
2014-Aug-04 00:34N 57°54' E 020°07'1814.5
2014-Aug-03 23:18N 57°45' E 020°36'1414.3
2014-Aug-03 22:18N 57°38' E 020°60'55 5.1
2014-Aug-03 11:34N 58°06' E 019°32'1212.3
2014-Aug-03 10:33N 58°13' E 019°12'1413.9
2014-Aug-03 09:33N 58°22' E 018°52'1413.7
2014-Aug-03 08:33N 58°32' E 018°34'84 2.9
2014-Aug-02 04:08N 57°43' E 020°43'814.2
2014-Aug-02 03:32N 57°47' E 020°30'1514.2
2014-Aug-02 02:31N 57°55' E 020°07'3214.1
2014-Aug-02 00:13N 58°12' E 019°14'  

Dump ship's entire track history